2022年5月18日

时间 代码 天气 温度 能见度 乌云 METAR/SPECI
10:20
V
24 °C 10 km+ 34.000 ft 190°   190° 4 kt METAR ETWM 180820Z 19004KT 9999 FEW036 BKN340 24/14 Q1020 BLU+
09:20
V
22 °C 10 km+ 37.000 ft 180°   180° 4 kt METAR ETWM 180720Z 18004KT 9999 FEW030 BKN370 22/14 Q1020 BLU+
08:20
V
18 °C 10 km+ - 160°   160° 4 kt METAR ETWM 180620Z 16004KT 9999 FEW030 SCT370 18/14 Q1020 BLU+
07:20
V
17 °C 10 km+ - Var   Var 2 kt METAR ETWM 180520Z VRB02KT 9999 FEW060 SCT380 17/13 Q1020 BLU+
06:20
V
13 °C 10 km+ - Var   Var 2 kt METAR ETWM 180420Z VRB02KT 9999 FEW060 13/12 Q1019 BLU+
05:20
L
14 °C 0 m - 090°   090° 2 kt METAR ETWM 180320Z AUTO 09002KT //// // ////// 14/12 Q1019 ///
04:20
L
14 °C 0 m - 090°   090° 2 kt METAR ETWM 180220Z AUTO 09002KT //// // ////// 14/12 Q1019 ///
03:20
L
16 °C 0 m - Var   Var 3 kt METAR ETWM 180120Z AUTO VRB03KT //// // ////// 16/12 Q1019 ///
02:20
L
16 °C 0 m - 090°   090° 3 kt METAR ETWM 180020Z AUTO 09003KT //// // ////// 16/13 Q1019 ///
01:20
L
17 °C 0 m - Var   Var 2 kt METAR ETWM 172320Z AUTO VRB02KT //// // ////// 17/13 Q1019 ///
00:20
L
16 °C 0 m - 110°   110° 2 kt METAR ETWM 172220Z AUTO 11002KT //// // ////// 16/13 Q1019 ///

2022年5月17日

时间 代码 天气 温度 能见度 乌云 METAR/SPECI
23:20
L
16 °C 0 m - 110°   110° 2 kt METAR ETWM 172120Z AUTO 11002KT //// // ////// 16/13 Q1020 ///
22:20
L
17 °C 0 m - 040°   040° 1 kt METAR ETWM 172020Z AUTO 04001KT //// // ////// 17/13 Q1020 ///
21:20
L
19 °C 0 m - Var   Var 1 kt METAR ETWM 171920Z AUTO VRB01KT //// // ////// 19/13 Q1019 ///
20:20
L
20 °C 0 m - 180°   180° 3 kt METAR ETWM 171820Z AUTO 18003KT //// // ////// 20/12 Q1019 ///
19:20
L
22 °C 0 m - 140°   140° 4 kt METAR ETWM 171720Z AUTO 14004KT //// // ////// 22/11 Q1019 ///
18:20
L
23 °C 0 m - 230°   230° 3 kt METAR ETWM 171620Z AUTO 23003KT //// // ////// 23/11 Q1019 ///
17:20
L
22 °C 0 m - 220°   220° 4 kt METAR ETWM 171520Z AUTO 22004KT //// // ////// 22/11 Q1020 ///
16:20
V
22 °C 10 km+ - 240°   240° 4 kt METAR ETWM 171420Z 24004KT 9999 FEW030 SCT075 22/13 Q1020 BLU+
15:20
V
20 °C 10 km+ 8.000 ft 240°   240° 8 kt METAR ETWM 171320Z 24008KT 9999 FEW025 SCT067 BKN080 20/13 Q1020 BLU
14:20
V
20 °C 10 km+ 6.700 ft 220°   220° 7 kt METAR ETWM 171220Z 22007KT 9999 SCT031 BKN067 20/13 Q1020 BLU
13:20
V
22 °C 10 km+ 9.300 ft 270°   270° 6 kt METAR ETWM 171120Z 27006KT 9999 FEW038 BKN093 22/11 Q1020 BLU
12:20
V
21 °C 10 km+ 37.000 ft 260°   260° 5 kt METAR ETWM 171020Z 26005KT 9999 FEW040 BKN370 21/11 Q1021 BLU+
11:20
V
20 °C 10 km+ 30.000 ft 280°   280° 6 kt METAR ETWM 170920Z 28006KT 9999 FEW030 BKN300 20/12 Q1020 BLU+
10:20
V
19 °C 10 km+ 29.000 ft 250°   250° 5 kt METAR ETWM 170820Z 25005KT 9999 FEW020 BKN290 19/13 Q1020 BLU+
09:20
V
17 °C 10 km+ 29.000 ft 260°   260° 6 kt METAR ETWM 170720Z 26006KT 9999 FEW012 BKN290 17/13 Q1020 BLU+
08:20
V
16 °C 10 km+ 28.000 ft 250°   250° 4 kt METAR ETWM 170620Z 25004KT 9999 FEW025 BKN280 16/14 Q1020 BLU+
07:20
V
14 °C 10 km+ - Var   Var 3 kt METAR ETWM 170520Z VRB03KT 9999 FEW060 SCT300 14/13 Q1019 BLU+
06:20
V
12 °C 10 km+ - Var   Var 2 kt METAR ETWM 170420Z VRB02KT 9999 BCFG FEW025 12/12 Q1019 BLU+
05:20
L
12 °C 0 m - 230°   230° 2 kt METAR ETWM 170320Z AUTO 23002KT //// // ////// 12/12 Q1019 ///
04:20
L
13 °C 0 m - Var   Var 2 kt METAR ETWM 170220Z AUTO VRB02KT //// // ////// 13/12 Q1019 ///
03:20
L
13 °C 0 m - 240°   240° 2 kt METAR ETWM 170120Z AUTO 24002KT //// // ////// 13/13 Q1019 ///
02:20
L
14 °C 0 m - Var   Var 2 kt METAR ETWM 170020Z AUTO VRB02KT //// // ////// 14/14 Q1019 ///
01:20
L
15 °C 0 m - Var   Var 3 kt METAR ETWM 162320Z AUTO VRB03KT //// // ////// 15/14 Q1019 ///
00:20
L
14 °C 0 m - Var   Var 2 kt METAR ETWM 162220Z AUTO VRB02KT //// // ////// 14/14 Q1018 ///

2022年5月16日

时间 代码 天气 温度 能见度 乌云 METAR/SPECI
23:20
L
14 °C 0 m - 210°   210° 2 kt METAR ETWM 162120Z AUTO 21002KT //// // ////// 14/14 Q1018 ///
22:20
L
15 °C 0 m - Var   Var 3 kt METAR ETWM 162020Z AUTO VRB03KT //// // ////// 15/14 Q1018 ///
21:20
L
16 °C 0 m - 270°   270° 3 kt METAR ETWM 161920Z AUTO 27003KT //// // ////// 16/15 Q1017 ///
20:20
L
16 °C 0 m - 290°   290° 5 kt METAR ETWM 161820Z AUTO 29005KT //// // ////// 16/15 Q1017 ///
19:20
L
17 °C 0 m - 280°   280° 7 kt METAR ETWM 161720Z AUTO 28007KT //// // ////// 17/15 Q1016 ///
18:20
L
19 °C 0 m - 260°   260° 6 kt METAR ETWM 161620Z AUTO 26006KT //// // ////// 19/16 Q1015 ///
17:20
L
24 °C 0 m - 220°   220° 4 kt METAR ETWM 161520Z AUTO 22004KT //// // ////// 24/12 Q1014 ///
16:20
V
23 °C 10 km+ 10.000 ft 200°   200° 2 kt METAR ETWM 161420Z 20002KT 9999 FEW050 BKN100 23/12 Q1014 BLU
15:20
V
24 °C 10 km+ 9.400 ft 240°   240° 4 kt METAR ETWM 161320Z 24004KT 9999 FEW055 BKN094 24/11 Q1014 BLU
14:20
V
25 °C 10 km+ 10.000 ft 160°   160° 3 kt METAR ETWM 161220Z 16003KT 9999 FEW060 BKN100 25/10 Q1014 BLU
13:20
V
25 °C 10 km+ 14.000 ft 130°   130° 6 kt METAR ETWM 161120Z 13006KT 9999 FEW055 BKN140 25/09 Q1014 BLU
12:20
V
24 °C 10 km+ 16.000 ft 120°   120° 6 kt METAR ETWM 161020Z 12006KT 9999 FEW050 BKN160 24/09 Q1014 BLU
11:20
V
22 °C 10 km+ 30.000 ft 110°   110° 7 kt METAR ETWM 160920Z 11007KT 9999 FEW190 SCT240 BKN300 22/08 Q1014 BLU+
较旧的数据

下载我们的应用程序

在您的手机和平板电脑上轻松访问所有航空天气。
有许多网站上没有的功能,如离线支持和个人机场列表。

Studio Eveline

Benalmádena
España